sensor_id;sensor_type;location;lat;lon;timestamp;pressure;altitude;pressure_sealevel;temperature;humidity
73422;BME280;61637;47.760;-122.022;2022-08-01T01:48:01;101253.06099999999;;;33.0;unknown
73422;BME280;61637;47.760;-122.022;2022-08-01T01:50:00;101253.06099999999;;;32.8;unknown
73422;BME280;61637;47.760;-122.022;2022-08-01T01:52:00;101253.06099999999;;;32.7;unknown
73422;BME280;61637;47.760;-122.022;2022-08-01T01:54:00;101253.06099999999;;;32.5;unknown
73422;BME280;61637;47.760;-122.022;2022-08-01T01:56:00;101253.06099999999;;;32.3;unknown
73422;BME280;61637;47.760;-122.022;2022-08-01T01:58:00;101253.06099999999;;;32.2;unknown
73422;BME280;61637;47.760;-122.022;2022-08-01T02:00:00;101253.06099999999;;;32.0;unknown
73422;BME280;61637;47.760;-122.022;2022-08-01T02:02:02;101253.06099999999;;;31.8;unknown
73422;BME280;61637;47.760;-122.022;2022-08-01T02:04:00;101253.06099999999;;;31.8;unknown
73422;BME280;61637;47.760;-122.022;2022-08-01T02:06:00;101253.06099999999;;;31.7;unknown
73422;BME280;61637;47.760;-122.022;2022-08-01T02:08:01;101253.06099999999;;;31.6;unknown
73422;BME280;61637;47.760;-122.022;2022-08-01T02:10:00;101253.06099999999;;;31.4;unknown
73422;BME280;61637;47.760;-122.022;2022-08-01T02:12:01;101253.06099999999;;;31.4;unknown
73422;BME280;61637;47.760;-122.022;2022-08-01T02:14:01;101253.06099999999;;;31.3;unknown
73422;BME280;61637;47.760;-122.022;2022-08-01T02:16:00;101253.06099999999;;;31.3;unknown
73422;BME280;61637;47.760;-122.022;2022-08-01T02:18:00;101253.06099999999;;;31.2;unknown
73422;BME280;61637;47.760;-122.022;2022-08-01T02:20:00;101253.06099999999;;;31.1;unknown
73422;BME280;61637;47.760;-122.022;2022-08-01T02:22:01;101253.06099999999;;;31.0;unknown
73422;BME280;61637;47.760;-122.022;2022-08-01T02:24:03;101253.06099999999;;;30.9;unknown
73422;BME280;61637;47.760;-122.022;2022-08-01T02:26:00;101253.06099999999;;;30.8;unknown
73422;BME280;61637;47.760;-122.022;2022-08-01T02:28:02;101253.06099999999;;;30.7;unknown
73422;BME280;61637;47.760;-122.022;2022-08-01T02:30:01;101253.06099999999;;;30.6;unknown
73422;BME280;61637;47.760;-122.022;2022-08-01T02:32:00;101253.06099999999;;;30.4;unknown
73422;BME280;61637;47.760;-122.022;2022-08-01T02:34:02;101253.06099999999;;;30.3;unknown
73422;BME280;61637;47.760;-122.022;2022-08-01T02:36:00;101253.06099999999;;;30.2;unknown
73422;BME280;61637;47.760;-122.022;2022-08-01T02:38:01;101253.06099999999;;;30.1;unknown
73422;BME280;61637;47.760;-122.022;2022-08-01T02:40:00;101253.06099999999;;;29.9;unknown
73422;BME280;61637;47.760;-122.022;2022-08-01T02:42:02;101253.06099999999;;;29.8;unknown
73422;BME280;61637;47.760;-122.022;2022-08-01T02:44:02;101253.06099999999;;;29.7;unknown
73422;BME280;61637;47.760;-122.022;2022-08-01T02:46:01;101253.06099999999;;;29.6;unknown
73422;BME280;61637;47.760;-122.022;2022-08-01T02:48:02;101253.06099999999;;;29.6;unknown
73422;BME280;61637;47.760;-122.022;2022-08-01T02:50:00;101253.06099999999;;;29.6;unknown
73422;BME280;61637;47.760;-122.022;2022-08-01T02:52:01;101253.06099999999;;;29.4;unknown
73422;BME280;61637;47.760;-122.022;2022-08-01T02:54:01;101253.06099999999;;;29.4;unknown
73422;BME280;61637;47.760;-122.022;2022-08-01T02:56:00;101253.06099999999;;;29.4;unknown
73422;BME280;61637;47.760;-122.022;2022-08-01T02:58:00;101253.06099999999;;;29.3;unknown
73422;BME280;61637;47.760;-122.022;2022-08-01T03:00:01;101253.06099999999;;;29.3;unknown
73422;BME280;61637;47.760;-122.022;2022-08-01T03:02:00;101253.06099999999;;;29.3;unknown
73422;BME280;61637;47.760;-122.022;2022-08-01T03:04:00;101253.06099999999;;;29.2;unknown
73422;BME280;61637;47.760;-122.022;2022-08-01T03:06:00;101253.06099999999;;;29.2;unknown
73422;BME280;61637;47.760;-122.022;2022-08-01T03:08:00;101253.06099999999;;;29.1;unknown
73422;BME280;61637;47.760;-122.022;2022-08-01T03:10:00;101253.06099999999;;;29.0;unknown
73422;BME280;61637;47.760;-122.022;2022-08-01T03:12:02;101253.06099999999;;;28.9;unknown
73422;BME280;61637;47.760;-122.022;2022-08-01T03:14:01;101253.06099999999;;;28.8;unknown
73422;BME280;61637;47.760;-122.022;2022-08-01T03:16:00;101253.06099999999;;;28.7;unknown
73422;BME280;61637;47.760;-122.022;2022-08-01T03:18:00;101253.06099999999;;;28.7;unknown
73422;BME280;61637;47.760;-122.022;2022-08-01T03:20:01;101253.06099999999;;;28.6;unknown
73422;BME280;61637;47.760;-122.022;2022-08-01T03:22:00;101253.06099999999;;;28.6;unknown
73422;BME280;61637;47.760;-122.022;2022-08-01T03:24:01;101253.06099999999;;;28.4;unknown
73422;BME280;61637;47.760;-122.022;2022-08-01T03:26:00;101253.06099999999;;;28.3;unknown
73422;BME280;61637;47.760;-122.022;2022-08-01T03:28:02;101253.06099999999;;;28.1;unknown
73422;BME280;61637;47.760;-122.022;2022-08-01T03:30:00;101253.06099999999;;;28.0;unknown
73422;BME280;61637;47.760;-122.022;2022-08-01T03:32:00;101253.06099999999;;;27.9;unknown
73422;BME280;61637;47.760;-122.022;2022-08-01T03:34:00;101253.06099999999;;;27.8;unknown
73422;BME280;61637;47.760;-122.022;2022-08-01T03:36:01;101253.06099999999;;;27.9;unknown
73422;BME280;61637;47.760;-122.022;2022-08-01T03:38:00;101253.06099999999;;;27.8;unknown
73422;BME280;61637;47.760;-122.022;2022-08-01T03:40:04;101253.06099999999;;;27.8;unknown
73422;BME280;61637;47.760;-122.022;2022-08-01T03:42:03;101253.06099999999;;;27.8;unknown
73422;BME280;61637;47.760;-122.022;2022-08-01T03:44:01;101253.06099999999;;;27.8;unknown
73422;BME280;61637;47.760;-122.022;2022-08-01T03:46:02;101253.06099999999;;;27.7;unknown
73422;BME280;61637;47.760;-122.022;2022-08-01T03:48:01;101253.06099999999;;;27.7;unknown
73422;BME280;61637;47.760;-122.022;2022-08-01T03:50:00;101253.06099999999;;;27.8;unknown
73422;BME280;61637;47.760;-122.022;2022-08-01T03:52:01;101253.06099999999;;;27.8;unknown
73422;BME280;61637;47.760;-122.022;2022-08-01T03:54:00;101253.06099999999;;;27.8;unknown
73422;BME280;61637;47.760;-122.022;2022-08-01T03:56:00;101253.06099999999;;;27.8;unknown
73422;BME280;61637;47.760;-122.022;2022-08-01T03:58:00;101253.06099999999;;;27.8;unknown
73422;BME280;61637;47.760;-122.022;2022-08-01T04:00:00;101253.06099999999;;;27.6;unknown
73422;BME280;61637;47.760;-122.022;2022-08-01T04:02:00;101253.06099999999;;;27.4;unknown
73422;BME280;61637;47.760;-122.022;2022-08-01T04:04:00;101253.06099999999;;;27.2;unknown
73422;BME280;61637;47.760;-122.022;2022-08-01T04:06:03;101253.06099999999;;;27.1;unknown
73422;BME280;61637;47.760;-122.022;2022-08-01T04:08:00;101253.06099999999;;;26.9;unknown
73422;BME280;61637;47.760;-122.022;2022-08-01T04:10:00;101253.06099999999;;;26.7;unknown
73422;BME280;61637;47.760;-122.022;2022-08-01T04:12:00;101253.06099999999;;;26.4;unknown
73422;BME280;61637;47.760;-122.022;2022-08-01T04:14:00;101253.06099999999;;;26.3;unknown
73422;BME280;61637;47.760;-122.022;2022-08-01T04:16:00;101253.06099999999;;;26.1;unknown
73422;BME280;61637;47.760;-122.022;2022-08-01T04:18:00;101253.06099999999;;;25.8;unknown
73422;BME280;61637;47.760;-122.022;2022-08-01T04:20:00;101253.06099999999;;;25.7;unknown
73422;BME280;61637;47.760;-122.022;2022-08-01T04:22:00;101253.06099999999;;;25.7;unknown
73422;BME280;61637;47.760;-122.022;2022-08-01T04:24:02;101253.06099999999;;;25.8;unknown
73422;BME280;61637;47.760;-122.022;2022-08-01T04:26:01;101253.06099999999;;;25.8;unknown
73422;BME280;61637;47.760;-122.022;2022-08-01T04:28:00;101253.06099999999;;;26.0;unknown
73422;BME280;61637;47.760;-122.022;2022-08-01T04:30:00;101253.06099999999;;;26.2;unknown
73422;BME280;61637;47.760;-122.022;2022-08-01T04:32:00;101253.06099999999;;;26.2;unknown
73422;BME280;61637;47.760;-122.022;2022-08-01T04:34:00;101253.06099999999;;;26.3;unknown
73422;BME280;61637;47.760;-122.022;2022-08-01T04:36:02;101253.06099999999;;;26.3;unknown
73422;BME280;61637;47.760;-122.022;2022-08-01T04:38:00;101253.06099999999;;;26.2;unknown
73422;BME280;61637;47.760;-122.022;2022-08-01T04:40:00;101253.06099999999;;;26.1;unknown
73422;BME280;61637;47.760;-122.022;2022-08-01T04:42:00;101253.06099999999;;;25.9;unknown
73422;BME280;61637;47.760;-122.022;2022-08-01T04:44:00;101253.06099999999;;;25.8;unknown
73422;BME280;61637;47.760;-122.022;2022-08-01T04:46:00;101253.06099999999;;;25.6;unknown
73422;BME280;61637;47.760;-122.022;2022-08-01T04:48:01;101253.06099999999;;;25.4;unknown
73422;BME280;61637;47.760;-122.022;2022-08-01T04:50:00;101253.06099999999;;;25.2;unknown
73422;BME280;61637;47.760;-122.022;2022-08-01T04:52:00;101253.06099999999;;;25.1;unknown
73422;BME280;61637;47.760;-122.022;2022-08-01T04:54:00;101253.06099999999;;;24.8;unknown
73422;BME280;61637;47.760;-122.022;2022-08-01T04:56:00;101253.06099999999;;;24.7;unknown
73422;BME280;61637;47.760;-122.022;2022-08-01T04:58:00;101253.06099999999;;;24.5;unknown
73422;BME280;61637;47.760;-122.022;2022-08-01T05:00:00;101253.06099999999;;;24.3;unknown
73422;BME280;61637;47.760;-122.022;2022-08-01T05:02:00;101253.06099999999;;;24.2;unknown
73422;BME280;61637;47.760;-122.022;2022-08-01T05:04:00;101253.06099999999;;;24.1;unknown
73422;BME280;61637;47.760;-122.022;2022-08-01T05:06:00;101253.06099999999;;;23.9;unknown
73422;BME280;61637;47.760;-122.022;2022-08-01T05:08:00;101253.06099999999;;;23.8;unknown
73422;BME280;61637;47.760;-122.022;2022-08-01T05:10:00;101253.06099999999;;;23.7;unknown
73422;BME280;61637;47.760;-122.022;2022-08-01T05:12:01;101253.06099999999;;;23.8;unknown
73422;BME280;61637;47.760;-122.022;2022-08-01T05:14:00;101253.06099999999;;;23.8;unknown
73422;BME280;61637;47.760;-122.022;2022-08-01T05:16:00;101253.06099999999;;;23.8;unknown
73422;BME280;61637;47.760;-122.022;2022-08-01T05:18:00;101253.06099999999;;;23.8;unknown
73422;BME280;61637;47.760;-122.022;2022-08-01T05:20:00;101253.06099999999;;;23.6;unknown
73422;BME280;61637;47.760;-122.022;2022-08-01T05:22:00;101253.06099999999;;;23.6;unknown
73422;BME280;61637;47.760;-122.022;2022-08-01T05:24:01;101253.06099999999;;;23.4;unknown
73422;BME280;61637;47.760;-122.022;2022-08-01T05:26:00;101253.06099999999;;;23.3;unknown
73422;BME280;61637;47.760;-122.022;2022-08-01T05:28:00;101253.06099999999;;;23.3;unknown
73422;BME280;61637;47.760;-122.022;2022-08-01T05:30:00;101253.06099999999;;;23.2;unknown
73422;BME280;61637;47.760;-122.022;2022-08-01T05:32:00;101253.06099999999;;;23.1;unknown
73422;BME280;61637;47.760;-122.022;2022-08-01T05:34:00;101253.06099999999;;;23.0;unknown
73422;BME280;61637;47.760;-122.022;2022-08-01T05:36:01;101253.06099999999;;;22.9;unknown
73422;BME280;61637;47.760;-122.022;2022-08-01T05:38:00;101253.06099999999;;;22.9;unknown
73422;BME280;61637;47.760;-122.022;2022-08-01T05:40:00;101253.06099999999;;;23.2;unknown
73422;BME280;61637;47.760;-122.022;2022-08-01T05:42:00;101253.06099999999;;;23.4;unknown
73422;BME280;61637;47.760;-122.022;2022-08-01T05:44:00;101253.06099999999;;;23.8;unknown
73422;BME280;61637;47.760;-122.022;2022-08-01T05:46:00;101253.06099999999;;;24.1;unknown
73422;BME280;61637;47.760;-122.022;2022-08-01T05:48:00;101253.06099999999;;;24.2;unknown
73422;BME280;61637;47.760;-122.022;2022-08-01T05:50:00;101253.06099999999;;;24.2;unknown
73422;BME280;61637;47.760;-122.022;2022-08-01T05:52:00;101253.06099999999;;;24.2;unknown
73422;BME280;61637;47.760;-122.022;2022-08-01T05:54:00;101253.06099999999;;;24.1;unknown
73422;BME280;61637;47.760;-122.022;2022-08-01T05:56:00;101253.06099999999;;;24.0;unknown
73422;BME280;61637;47.760;-122.022;2022-08-01T05:58:00;101253.06099999999;;;24.0;unknown
73422;BME280;61637;47.760;-122.022;2022-08-01T06:00:00;101253.06099999999;;;24.1;unknown
73422;BME280;61637;47.760;-122.022;2022-08-01T06:02:00;101253.06099999999;;;24.1;unknown
73422;BME280;61637;47.760;-122.022;2022-08-01T06:04:00;101253.06099999999;;;24.1;unknown
73422;BME280;61637;47.760;-122.022;2022-08-01T06:06:00;101253.06099999999;;;23.9;unknown
73422;BME280;61637;47.760;-122.022;2022-08-01T06:08:00;101253.06099999999;;;23.8;unknown
73422;BME280;61637;47.760;-122.022;2022-08-01T06:10:00;101253.06099999999;;;23.6;unknown
73422;BME280;61637;47.760;-122.022;2022-08-01T06:12:01;101253.06099999999;;;23.3;unknown
73422;BME280;61637;47.760;-122.022;2022-08-01T06:14:00;101253.06099999999;;;23.1;unknown
73422;BME280;61637;47.760;-122.022;2022-08-01T06:16:00;101253.06099999999;;;22.9;unknown
73422;BME280;61637;47.760;-122.022;2022-08-01T06:18:00;101253.06099999999;;;22.7;unknown
73422;BME280;61637;47.760;-122.022;2022-08-01T06:20:00;101253.06099999999;;;22.6;unknown
73422;BME280;61637;47.760;-122.022;2022-08-01T06:22:00;101253.06099999999;;;22.7;unknown
73422;BME280;61637;47.760;-122.022;2022-08-01T06:24:00;101253.06099999999;;;22.8;unknown
73422;BME280;61637;47.760;-122.022;2022-08-01T06:26:00;101253.06099999999;;;23.1;unknown
73422;BME280;61637;47.760;-122.022;2022-08-01T06:28:01;101253.06099999999;;;23.2;unknown
73422;BME280;61637;47.760;-122.022;2022-08-01T06:30:00;101253.06099999999;;;23.3;unknown
73422;BME280;61637;47.760;-122.022;2022-08-01T06:32:00;101253.06099999999;;;23.4;unknown
73422;BME280;61637;47.760;-122.022;2022-08-01T06:34:00;101253.06099999999;;;23.4;unknown
73422;BME280;61637;47.760;-122.022;2022-08-01T06:36:01;101253.06099999999;;;23.3;unknown
73422;BME280;61637;47.760;-122.022;2022-08-01T06:38:00;101253.06099999999;;;23.2;unknown
73422;BME280;61637;47.760;-122.022;2022-08-01T06:40:00;101253.06099999999;;;23.1;unknown
73422;BME280;61637;47.760;-122.022;2022-08-01T06:42:00;101253.06099999999;;;22.9;unknown
73422;BME280;61637;47.760;-122.022;2022-08-01T06:44:00;101253.06099999999;;;22.9;unknown
73422;BME280;61637;47.760;-122.022;2022-08-01T06:46:00;101253.06099999999;;;22.8;unknown
73422;BME280;61637;47.760;-122.022;2022-08-01T06:48:01;101253.06099999999;;;22.7;unknown
73422;BME280;61637;47.760;-122.022;2022-08-01T06:50:00;101253.06099999999;;;22.7;unknown
73422;BME280;61637;47.760;-122.022;2022-08-01T06:52:00;101253.06099999999;;;22.7;unknown
73422;BME280;61637;47.760;-122.022;2022-08-01T06:54:00;101253.06099999999;;;22.9;unknown
73422;BME280;61637;47.760;-122.022;2022-08-01T06:56:00;101253.06099999999;;;23.1;unknown
73422;BME280;61637;47.760;-122.022;2022-08-01T06:58:00;101253.06099999999;;;23.3;unknown
73422;BME280;61637;47.760;-122.022;2022-08-01T07:00:02;101253.06099999999;;;23.5;unknown
73422;BME280;61637;47.760;-122.022;2022-08-01T07:02:00;101253.06099999999;;;23.6;unknown
73422;BME280;61637;47.760;-122.022;2022-08-01T07:04:00;101253.06099999999;;;23.6;unknown
73422;BME280;61637;47.760;-122.022;2022-08-01T07:06:00;101253.06099999999;;;23.6;unknown
73422;BME280;61637;47.760;-122.022;2022-08-01T07:08:00;101253.06099999999;;;23.5;unknown
73422;BME280;61637;47.760;-122.022;2022-08-01T07:10:00;101253.06099999999;;;23.4;unknown
73422;BME280;61637;47.760;-122.022;2022-08-01T07:12:01;101253.06099999999;;;23.3;unknown
73422;BME280;61637;47.760;-122.022;2022-08-01T07:14:00;101253.06099999999;;;23.2;unknown
73422;BME280;61637;47.760;-122.022;2022-08-01T07:16:00;101253.06099999999;;;23.2;unknown
73422;BME280;61637;47.760;-122.022;2022-08-01T07:18:00;101253.06099999999;;;23.1;unknown
73422;BME280;61637;47.760;-122.022;2022-08-01T07:20:01;101253.06099999999;;;23.1;unknown
73422;BME280;61637;47.760;-122.022;2022-08-01T07:22:00;101253.06099999999;;;23.1;unknown
73422;BME280;61637;47.760;-122.022;2022-08-01T07:24:00;101253.06099999999;;;23.0;unknown
73422;BME280;61637;47.760;-122.022;2022-08-01T07:26:00;101253.06099999999;;;23.0;unknown
73422;BME280;61637;47.760;-122.022;2022-08-01T07:28:00;101253.06099999999;;;22.9;unknown
73422;BME280;61637;47.760;-122.022;2022-08-01T07:30:00;101253.06099999999;;;22.9;unknown
73422;BME280;61637;47.760;-122.022;2022-08-01T07:32:00;101253.06099999999;;;23.1;unknown
73422;BME280;61637;47.760;-122.022;2022-08-01T07:34:00;101253.06099999999;;;23.1;unknown
73422;BME280;61637;47.760;-122.022;2022-08-01T07:36:01;101253.06099999999;;;23.1;unknown
73422;BME280;61637;47.760;-122.022;2022-08-01T07:38:00;101253.06099999999;;;23.2;unknown
73422;BME280;61637;47.760;-122.022;2022-08-01T07:40:00;101253.06099999999;;;23.2;unknown
73422;BME280;61637;47.760;-122.022;2022-08-01T07:42:00;101253.06099999999;;;23.1;unknown
73422;BME280;61637;47.760;-122.022;2022-08-01T07:44:00;101253.06099999999;;;23.1;unknown
73422;BME280;61637;47.760;-122.022;2022-08-01T07:46:00;101253.06099999999;;;23.1;unknown
73422;BME280;61637;47.760;-122.022;2022-08-01T07:48:02;101253.06099999999;;;23.1;unknown
73422;BME280;61637;47.760;-122.022;2022-08-01T07:50:00;101253.06099999999;;;23.0;unknown
73422;BME280;61637;47.760;-122.022;2022-08-01T07:52:00;101253.06099999999;;;23.1;unknown
73422;BME280;61637;47.760;-122.022;2022-08-01T07:54:00;101253.06099999999;;;23.0;unknown
73422;BME280;61637;47.760;-122.022;2022-08-01T07:56:00;101253.06099999999;;;23.0;unknown
73422;BME280;61637;47.760;-122.022;2022-08-01T07:58:00;101253.06099999999;;;22.9;unknown
73422;BME280;61637;47.760;-122.022;2022-08-01T08:00:00;101253.06099999999;;;22.8;unknown
73422;BME280;61637;47.760;-122.022;2022-08-01T08:02:00;101253.06099999999;;;22.8;unknown
73422;BME280;61637;47.760;-122.022;2022-08-01T08:04:00;101253.06099999999;;;22.8;unknown
73422;BME280;61637;47.760;-122.022;2022-08-01T08:06:00;101253.06099999999;;;22.8;unknown
73422;BME280;61637;47.760;-122.022;2022-08-01T08:08:00;101253.06099999999;;;22.8;unknown
73422;BME280;61637;47.760;-122.022;2022-08-01T08:10:00;101253.06099999999;;;22.8;unknown
73422;BME280;61637;47.760;-122.022;2022-08-01T08:12:00;101253.06099999999;;;22.8;unknown
73422;BME280;61637;47.760;-122.022;2022-08-01T08:14:00;101253.06099999999;;;22.8;unknown
73422;BME280;61637;47.760;-122.022;2022-08-01T08:16:00;101253.06099999999;;;22.6;unknown
73422;BME280;61637;47.760;-122.022;2022-08-01T08:18:00;101253.06099999999;;;22.4;unknown
73422;BME280;61637;47.760;-122.022;2022-08-01T08:20:00;101253.06099999999;;;22.2;unknown
73422;BME280;61637;47.760;-122.022;2022-08-01T08:22:00;101253.06099999999;;;22.1;unknown
73422;BME280;61637;47.760;-122.022;2022-08-01T08:24:00;101253.06099999999;;;22.1;unknown
73422;BME280;61637;47.760;-122.022;2022-08-01T08:26:00;101253.06099999999;;;22.1;unknown
73422;BME280;61637;47.760;-122.022;2022-08-01T08:28:00;101253.06099999999;;;22.1;unknown
73422;BME280;61637;47.760;-122.022;2022-08-01T08:30:00;101253.06099999999;;;22.1;unknown
73422;BME280;61637;47.760;-122.022;2022-08-01T08:32:00;101253.06099999999;;;21.9;unknown
73422;BME280;61637;47.760;-122.022;2022-08-01T08:34:00;101253.06099999999;;;21.7;unknown
73422;BME280;61637;47.760;-122.022;2022-08-01T08:36:00;101253.06099999999;;;21.5;unknown
73422;BME280;61637;47.760;-122.022;2022-08-01T08:38:00;101253.06099999999;;;21.3;unknown
73422;BME280;61637;47.760;-122.022;2022-08-01T08:40:00;101253.06099999999;;;21.1;unknown
73422;BME280;61637;47.760;-122.022;2022-08-01T08:42:00;101253.06099999999;;;20.9;unknown
73422;BME280;61637;47.760;-122.022;2022-08-01T08:44:00;101253.06099999999;;;20.7;unknown
73422;BME280;61637;47.760;-122.022;2022-08-01T08:46:00;101253.06099999999;;;20.6;unknown
73422;BME280;61637;47.760;-122.022;2022-08-01T08:48:00;101253.06099999999;;;20.3;unknown
73422;BME280;61637;47.760;-122.022;2022-08-01T08:50:00;101253.06099999999;;;20.2;unknown
73422;BME280;61637;47.760;-122.022;2022-08-01T08:52:00;101253.06099999999;;;20.1;unknown
73422;BME280;61637;47.760;-122.022;2022-08-01T08:54:00;101253.06099999999;;;20.0;unknown
73422;BME280;61637;47.760;-122.022;2022-08-01T08:56:00;101253.06099999999;;;19.9;unknown
73422;BME280;61637;47.760;-122.022;2022-08-01T08:58:00;101253.06099999999;;;19.8;unknown
73422;BME280;61637;47.760;-122.022;2022-08-01T09:00:00;101253.06099999999;;;19.7;unknown
73422;BME280;61637;47.760;-122.022;2022-08-01T09:02:00;101253.06099999999;;;19.7;unknown
73422;BME280;61637;47.760;-122.022;2022-08-01T09:04:01;101253.06099999999;;;19.6;unknown
73422;BME280;61637;47.760;-122.022;2022-08-01T09:06:00;101253.06099999999;;;19.5;unknown
73422;BME280;61637;47.760;-122.022;2022-08-01T09:08:00;101253.06099999999;;;19.5;unknown
73422;BME280;61637;47.760;-122.022;2022-08-01T09:10:00;101253.06099999999;;;19.4;unknown
73422;BME280;61637;47.760;-122.022;2022-08-01T09:12:00;101253.06099999999;;;19.4;unknown
73422;BME280;61637;47.760;-122.022;2022-08-01T09:14:02;101253.06099999999;;;19.3;unknown
73422;BME280;61637;47.760;-122.022;2022-08-01T09:16:00;101253.06099999999;;;19.2;unknown
73422;BME280;61637;47.760;-122.022;2022-08-01T09:18:00;101253.06099999999;;;19.2;unknown
73422;BME280;61637;47.760;-122.022;2022-08-01T09:20:00;101253.06099999999;;;19.2;unknown
73422;BME280;61637;47.760;-122.022;2022-08-01T09:22:01;101253.06099999999;;;19.1;unknown
73422;BME280;61637;47.760;-122.022;2022-08-01T09:24:00;101253.06099999999;;;19.1;unknown
73422;BME280;61637;47.760;-122.022;2022-08-01T09:26:00;101253.06099999999;;;19.1;unknown
73422;BME280;61637;47.760;-122.022;2022-08-01T09:28:02;101253.06099999999;;;19.0;unknown
73422;BME280;61637;47.760;-122.022;2022-08-01T09:30:08;101253.06099999999;;;18.9;unknown
73422;BME280;61637;47.760;-122.022;2022-08-01T09:32:00;101253.06099999999;;;18.9;unknown
73422;BME280;61637;47.760;-122.022;2022-08-01T09:34:00;101253.06099999999;;;18.9;unknown
73422;BME280;61637;47.760;-122.022;2022-08-01T09:36:00;101253.06099999999;;;18.8;unknown
73422;BME280;61637;47.760;-122.022;2022-08-01T09:40:00;101253.06099999999;;;18.8;unknown
73422;BME280;61637;47.760;-122.022;2022-08-01T09:42:01;101253.06099999999;;;18.8;unknown
73422;BME280;61637;47.760;-122.022;2022-08-01T09:44:00;101253.06099999999;;;18.8;unknown
73422;BME280;61637;47.760;-122.022;2022-08-01T09:46:04;101253.06099999999;;;18.8;unknown
73422;BME280;61637;47.760;-122.022;2022-08-01T09:48:05;101253.06099999999;;;18.7;unknown
73422;BME280;61637;47.760;-122.022;2022-08-01T09:50:00;101253.06099999999;;;18.7;unknown
73422;BME280;61637;47.760;-122.022;2022-08-01T09:52:10;101253.06099999999;;;18.7;unknown
73422;BME280;61637;47.760;-122.022;2022-08-01T09:54:01;101253.06099999999;;;18.7;unknown
73422;BME280;61637;47.760;-122.022;2022-08-01T09:56:08;101253.06099999999;;;18.7;unknown
73422;BME280;61637;47.760;-122.022;2022-08-01T09:58:00;101253.06099999999;;;18.7;unknown
73422;BME280;61637;47.760;-122.022;2022-08-01T10:00:01;101253.06099999999;;;18.7;unknown
73422;BME280;61637;47.760;-122.022;2022-08-01T10:02:00;101253.06099999999;;;18.7;unknown
73422;BME280;61637;47.760;-122.022;2022-08-01T10:04:04;101253.06099999999;;;18.7;unknown
73422;BME280;61637;47.760;-122.022;2022-08-01T10:06:00;101253.06099999999;;;18.6;unknown
73422;BME280;61637;47.760;-122.022;2022-08-01T10:08:01;101253.06099999999;;;18.6;unknown
73422;BME280;61637;47.760;-122.022;2022-08-01T10:10:08;101253.06099999999;;;18.6;unknown
73422;BME280;61637;47.760;-122.022;2022-08-01T10:12:00;101253.06099999999;;;18.6;unknown
73422;BME280;61637;47.760;-122.022;2022-08-01T10:14:00;101253.06099999999;;;18.6;unknown
73422;BME280;61637;47.760;-122.022;2022-08-01T10:16:00;101253.06099999999;;;18.7;unknown
73422;BME280;61637;47.760;-122.022;2022-08-01T10:18:01;101253.06099999999;;;18.6;unknown
73422;BME280;61637;47.760;-122.022;2022-08-01T10:20:00;101253.06099999999;;;18.6;unknown
73422;BME280;61637;47.760;-122.022;2022-08-01T10:22:00;101253.06099999999;;;18.8;unknown
73422;BME280;61637;47.760;-122.022;2022-08-01T10:24:01;101253.06099999999;;;19.1;unknown
73422;BME280;61637;47.760;-122.022;2022-08-01T10:26:00;101253.06099999999;;;19.6;unknown
73422;BME280;61637;47.760;-122.022;2022-08-01T10:28:00;101253.06099999999;;;20.1;unknown
73422;BME280;61637;47.760;-122.022;2022-08-01T10:30:01;101253.06099999999;;;20.5;unknown
73422;BME280;61637;47.760;-122.022;2022-08-01T10:32:00;101253.06099999999;;;20.6;unknown
73422;BME280;61637;47.760;-122.022;2022-08-01T10:34:00;101253.06099999999;;;20.5;unknown
73422;BME280;61637;47.760;-122.022;2022-08-01T10:36:01;101253.06099999999;;;20.4;unknown
73422;BME280;61637;47.760;-122.022;2022-08-01T10:38:00;101253.06099999999;;;20.3;unknown
73422;BME280;61637;47.760;-122.022;2022-08-01T10:40:00;101253.06099999999;;;20.2;unknown
73422;BME280;61637;47.760;-122.022;2022-08-01T10:42:00;101253.06099999999;;;20.0;unknown
73422;BME280;61637;47.760;-122.022;2022-08-01T10:44:00;101253.06099999999;;;19.8;unknown